sensor_id;sensor_type;location;lat;lon;timestamp;temperature;humidity
7686;DHT22;3885;51.474;-2.576;2023-07-13T00:00:49;16.10;99.90
7686;DHT22;3885;51.474;-2.576;2023-07-13T00:03:16;16.10;99.90
7686;DHT22;3885;51.474;-2.576;2023-07-13T00:08:10;16.00;99.90
7686;DHT22;3885;51.474;-2.576;2023-07-13T00:15:36;16.00;99.90
7686;DHT22;3885;51.474;-2.576;2023-07-13T00:18:03;15.90;99.90
7686;DHT22;3885;51.474;-2.576;2023-07-13T00:20:30;15.90;99.90
7686;DHT22;3885;51.474;-2.576;2023-07-13T00:22:58;15.90;99.90
7686;DHT22;3885;51.474;-2.576;2023-07-13T00:25:25;15.90;99.90
7686;DHT22;3885;51.474;-2.576;2023-07-13T00:27:54;15.90;99.90
7686;DHT22;3885;51.474;-2.576;2023-07-13T00:30:21;15.90;99.90
7686;DHT22;3885;51.474;-2.576;2023-07-13T00:32:49;15.90;99.90
7686;DHT22;3885;51.474;-2.576;2023-07-13T00:35:17;15.90;99.90
7686;DHT22;3885;51.474;-2.576;2023-07-13T00:37:44;15.90;99.90
7686;DHT22;3885;51.474;-2.576;2023-07-13T00:40:13;16.00;99.90
7686;DHT22;3885;51.474;-2.576;2023-07-13T00:48:18;15.90;99.90
7686;DHT22;3885;51.474;-2.576;2023-07-13T00:50:49;15.90;99.90
7686;DHT22;3885;51.474;-2.576;2023-07-13T00:53:19;15.90;99.90
7686;DHT22;3885;51.474;-2.576;2023-07-13T00:55:47;16.00;99.90
7686;DHT22;3885;51.474;-2.576;2023-07-13T00:58:16;15.90;99.90
7686;DHT22;3885;51.474;-2.576;2023-07-13T01:00:44;16.00;99.90
7686;DHT22;3885;51.474;-2.576;2023-07-13T01:03:12;16.00;99.90
7686;DHT22;3885;51.474;-2.576;2023-07-13T01:05:41;16.00;99.90
7686;DHT22;3885;51.474;-2.576;2023-07-13T01:08:08;15.90;99.90
7686;DHT22;3885;51.474;-2.576;2023-07-13T01:10:35;15.90;99.90
7686;DHT22;3885;51.474;-2.576;2023-07-13T01:15:38;16.00;99.90
7686;DHT22;3885;51.474;-2.576;2023-07-13T01:18:08;16.00;99.90
7686;DHT22;3885;51.474;-2.576;2023-07-13T01:20:36;16.00;99.90
7686;DHT22;3885;51.474;-2.576;2023-07-13T01:23:07;16.00;99.90
7686;DHT22;3885;51.474;-2.576;2023-07-13T01:25:35;16.00;99.90
7686;DHT22;3885;51.474;-2.576;2023-07-13T01:30:29;16.10;99.90
7686;DHT22;3885;51.474;-2.576;2023-07-13T01:32:56;16.10;99.90
7686;DHT22;3885;51.474;-2.576;2023-07-13T01:35:23;16.00;99.90
7686;DHT22;3885;51.474;-2.576;2023-07-13T01:37:51;16.00;99.90
7686;DHT22;3885;51.474;-2.576;2023-07-13T01:40:19;16.10;99.90
7686;DHT22;3885;51.474;-2.576;2023-07-13T01:42:46;16.10;99.90
7686;DHT22;3885;51.474;-2.576;2023-07-13T01:45:13;16.00;99.90
7686;DHT22;3885;51.474;-2.576;2023-07-13T01:47:40;16.00;99.90
7686;DHT22;3885;51.474;-2.576;2023-07-13T01:50:08;16.00;99.90
7686;DHT22;3885;51.474;-2.576;2023-07-13T01:52:35;16.00;99.90
7686;DHT22;3885;51.474;-2.576;2023-07-13T01:55:02;16.00;99.90
7686;DHT22;3885;51.474;-2.576;2023-07-13T01:57:30;16.00;99.90
7686;DHT22;3885;51.474;-2.576;2023-07-13T01:59:57;16.00;99.90
7686;DHT22;3885;51.474;-2.576;2023-07-13T02:04:51;16.00;99.90
7686;DHT22;3885;51.474;-2.576;2023-07-13T02:07:18;16.00;99.90
7686;DHT22;3885;51.474;-2.576;2023-07-13T02:09:45;15.90;99.90
7686;DHT22;3885;51.474;-2.576;2023-07-13T02:12:12;15.90;99.90
7686;DHT22;3885;51.474;-2.576;2023-07-13T02:14:40;15.90;99.90
7686;DHT22;3885;51.474;-2.576;2023-07-13T02:17:10;15.90;99.90
7686;DHT22;3885;51.474;-2.576;2023-07-13T02:19:37;15.80;99.90
7686;DHT22;3885;51.474;-2.576;2023-07-13T02:22:04;15.80;99.90
7686;DHT22;3885;51.474;-2.576;2023-07-13T02:24:31;15.80;99.90
7686;DHT22;3885;51.474;-2.576;2023-07-13T02:26:58;15.70;99.90
7686;DHT22;3885;51.474;-2.576;2023-07-13T02:29:25;15.60;99.90
7686;DHT22;3885;51.474;-2.576;2023-07-13T02:31:53;15.60;99.90
7686;DHT22;3885;51.474;-2.576;2023-07-13T02:34:20;15.60;99.90
7686;DHT22;3885;51.474;-2.576;2023-07-13T02:39:14;15.50;99.90
7686;DHT22;3885;51.474;-2.576;2023-07-13T02:41:41;15.50;99.90
7686;DHT22;3885;51.474;-2.576;2023-07-13T02:44:08;15.50;99.90
7686;DHT22;3885;51.474;-2.576;2023-07-13T02:46:37;15.50;99.90
7686;DHT22;3885;51.474;-2.576;2023-07-13T02:49:05;15.50;99.90
7686;DHT22;3885;51.474;-2.576;2023-07-13T02:51:32;15.40;99.90
7686;DHT22;3885;51.474;-2.576;2023-07-13T02:54:00;15.50;99.90
7686;DHT22;3885;51.474;-2.576;2023-07-13T02:56:28;15.50;99.90
7686;DHT22;3885;51.474;-2.576;2023-07-13T02:58:55;15.50;99.90
7686;DHT22;3885;51.474;-2.576;2023-07-13T03:01:22;15.50;99.90
7686;DHT22;3885;51.474;-2.576;2023-07-13T03:06:18;15.40;99.90
7686;DHT22;3885;51.474;-2.576;2023-07-13T03:08:47;15.40;99.90
7686;DHT22;3885;51.474;-2.576;2023-07-13T03:11:16;15.40;99.90
7686;DHT22;3885;51.474;-2.576;2023-07-13T03:13:43;15.30;99.90
7686;DHT22;3885;51.474;-2.576;2023-07-13T03:16:10;15.30;99.90
7686;DHT22;3885;51.474;-2.576;2023-07-13T03:18:38;15.30;99.90
7686;DHT22;3885;51.474;-2.576;2023-07-13T03:21:05;15.20;99.90
7686;DHT22;3885;51.474;-2.576;2023-07-13T03:23:34;15.10;99.90
7686;DHT22;3885;51.474;-2.576;2023-07-13T03:26:02;15.10;99.90
7686;DHT22;3885;51.474;-2.576;2023-07-13T03:28:29;15.00;99.90
7686;DHT22;3885;51.474;-2.576;2023-07-13T03:31:01;14.90;99.90
7686;DHT22;3885;51.474;-2.576;2023-07-13T03:38:23;14.70;99.90
7686;DHT22;3885;51.474;-2.576;2023-07-13T03:40:51;14.60;99.90
7686;DHT22;3885;51.474;-2.576;2023-07-13T03:43:18;14.50;99.90
7686;DHT22;3885;51.474;-2.576;2023-07-13T03:48:13;14.40;99.90
7686;DHT22;3885;51.474;-2.576;2023-07-13T03:53:08;14.30;99.90
7686;DHT22;3885;51.474;-2.576;2023-07-13T03:55:35;14.30;99.90
7686;DHT22;3885;51.474;-2.576;2023-07-13T03:58:25;14.20;99.90
7686;DHT22;3885;51.474;-2.576;2023-07-13T04:00:52;14.20;99.90
7686;DHT22;3885;51.474;-2.576;2023-07-13T04:03:19;14.10;99.90
7686;DHT22;3885;51.474;-2.576;2023-07-13T04:05:46;14.10;99.90
7686;DHT22;3885;51.474;-2.576;2023-07-13T04:08:13;14.10;99.90
7686;DHT22;3885;51.474;-2.576;2023-07-13T04:10:41;14.10;99.90
7686;DHT22;3885;51.474;-2.576;2023-07-13T04:13:08;14.10;99.90
7686;DHT22;3885;51.474;-2.576;2023-07-13T04:15:36;14.10;99.90
7686;DHT22;3885;51.474;-2.576;2023-07-13T04:18:03;14.20;99.90
7686;DHT22;3885;51.474;-2.576;2023-07-13T04:20:30;14.20;99.90
7686;DHT22;3885;51.474;-2.576;2023-07-13T04:22:58;14.20;99.90
7686;DHT22;3885;51.474;-2.576;2023-07-13T04:25:25;14.20;99.90
7686;DHT22;3885;51.474;-2.576;2023-07-13T04:27:51;14.30;99.90
7686;DHT22;3885;51.474;-2.576;2023-07-13T04:32:47;14.30;99.90
7686;DHT22;3885;51.474;-2.576;2023-07-13T04:35:14;14.40;99.90
7686;DHT22;3885;51.474;-2.576;2023-07-13T04:40:08;14.50;99.90
7686;DHT22;3885;51.474;-2.576;2023-07-13T04:42:37;14.60;99.90
7686;DHT22;3885;51.474;-2.576;2023-07-13T04:45:05;14.60;99.90
7686;DHT22;3885;51.474;-2.576;2023-07-13T04:50:01;14.80;99.90
7686;DHT22;3885;51.474;-2.576;2023-07-13T04:52:28;14.80;99.90
7686;DHT22;3885;51.474;-2.576;2023-07-13T04:54:55;14.80;99.90
7686;DHT22;3885;51.474;-2.576;2023-07-13T04:57:22;14.80;99.90
7686;DHT22;3885;51.474;-2.576;2023-07-13T04:59:49;14.90;99.90
7686;DHT22;3885;51.474;-2.576;2023-07-13T05:02:16;14.90;99.90
7686;DHT22;3885;51.474;-2.576;2023-07-13T05:04:42;14.90;99.90
7686;DHT22;3885;51.474;-2.576;2023-07-13T05:07:10;14.90;99.90
7686;DHT22;3885;51.474;-2.576;2023-07-13T05:09:37;15.00;99.90
7686;DHT22;3885;51.474;-2.576;2023-07-13T05:12:06;15.00;99.90
7686;DHT22;3885;51.474;-2.576;2023-07-13T05:17:01;15.10;99.90
7686;DHT22;3885;51.474;-2.576;2023-07-13T05:19:28;15.10;99.90
7686;DHT22;3885;51.474;-2.576;2023-07-13T05:21:55;15.10;99.90
7686;DHT22;3885;51.474;-2.576;2023-07-13T05:24:23;15.20;99.90
7686;DHT22;3885;51.474;-2.576;2023-07-13T05:26:50;15.20;99.90
7686;DHT22;3885;51.474;-2.576;2023-07-13T05:29:19;15.40;99.90
7686;DHT22;3885;51.474;-2.576;2023-07-13T05:31:46;15.40;99.90
7686;DHT22;3885;51.474;-2.576;2023-07-13T05:36:40;15.60;99.90
7686;DHT22;3885;51.474;-2.576;2023-07-13T05:39:07;15.70;99.90
7686;DHT22;3885;51.474;-2.576;2023-07-13T05:41:35;15.80;99.90
7686;DHT22;3885;51.474;-2.576;2023-07-13T05:46:30;16.00;99.90
7686;DHT22;3885;51.474;-2.576;2023-07-13T05:51:24;16.10;99.90
7686;DHT22;3885;51.474;-2.576;2023-07-13T05:56:18;16.30;99.90
7686;DHT22;3885;51.474;-2.576;2023-07-13T05:58:47;16.20;99.90
7686;DHT22;3885;51.474;-2.576;2023-07-13T06:01:15;16.10;99.90
7686;DHT22;3885;51.474;-2.576;2023-07-13T06:03:42;16.10;99.90
7686;DHT22;3885;51.474;-2.576;2023-07-13T06:06:10;16.20;99.90
7686;DHT22;3885;51.474;-2.576;2023-07-13T06:08:37;16.30;99.90
7686;DHT22;3885;51.474;-2.576;2023-07-13T06:11:05;16.40;99.90
7686;DHT22;3885;51.474;-2.576;2023-07-13T06:13:32;16.30;99.90
7686;DHT22;3885;51.474;-2.576;2023-07-13T06:18:29;16.60;99.90
7686;DHT22;3885;51.474;-2.576;2023-07-13T06:20:56;16.70;99.90
7686;DHT22;3885;51.474;-2.576;2023-07-13T06:23:24;16.90;99.90
7686;DHT22;3885;51.474;-2.576;2023-07-13T06:25:51;16.90;99.90
7686;DHT22;3885;51.474;-2.576;2023-07-13T06:28:18;16.80;99.90
7686;DHT22;3885;51.474;-2.576;2023-07-13T06:33:14;16.70;99.90
7686;DHT22;3885;51.474;-2.576;2023-07-13T06:35:41;16.70;99.90
7686;DHT22;3885;51.474;-2.576;2023-07-13T06:40:36;16.70;99.90
7686;DHT22;3885;51.474;-2.576;2023-07-13T06:43:03;16.70;99.90
7686;DHT22;3885;51.474;-2.576;2023-07-13T06:45:29;16.70;99.90
7686;DHT22;3885;51.474;-2.576;2023-07-13T06:47:56;16.70;99.90
7686;DHT22;3885;51.474;-2.576;2023-07-13T06:50:25;16.80;99.90
7686;DHT22;3885;51.474;-2.576;2023-07-13T06:52:51;16.90;99.90
7686;DHT22;3885;51.474;-2.576;2023-07-13T06:55:19;17.00;99.90
7686;DHT22;3885;51.474;-2.576;2023-07-13T06:57:46;17.10;99.90
7686;DHT22;3885;51.474;-2.576;2023-07-13T07:00:14;17.10;99.90
7686;DHT22;3885;51.474;-2.576;2023-07-13T07:02:41;17.20;99.90
7686;DHT22;3885;51.474;-2.576;2023-07-13T07:05:08;17.20;99.90
7686;DHT22;3885;51.474;-2.576;2023-07-13T07:07:36;17.20;99.90
7686;DHT22;3885;51.474;-2.576;2023-07-13T07:10:03;17.10;99.90
7686;DHT22;3885;51.474;-2.576;2023-07-13T07:12:30;17.20;99.90
7686;DHT22;3885;51.474;-2.576;2023-07-13T07:17:25;17.10;99.90
7686;DHT22;3885;51.474;-2.576;2023-07-13T07:19:52;17.00;99.90
7686;DHT22;3885;51.474;-2.576;2023-07-13T07:22:19;17.00;99.90
7686;DHT22;3885;51.474;-2.576;2023-07-13T07:24:47;17.10;99.90
7686;DHT22;3885;51.474;-2.576;2023-07-13T07:27:14;17.10;99.90
7686;DHT22;3885;51.474;-2.576;2023-07-13T07:29:41;17.20;99.90
7686;DHT22;3885;51.474;-2.576;2023-07-13T07:37:03;17.00;99.90
7686;DHT22;3885;51.474;-2.576;2023-07-13T07:39:30;17.10;99.90
7686;DHT22;3885;51.474;-2.576;2023-07-13T07:41:59;17.20;99.90
7686;DHT22;3885;51.474;-2.576;2023-07-13T07:44:25;17.40;99.90
7686;DHT22;3885;51.474;-2.576;2023-07-13T07:46:54;17.40;99.90
7686;DHT22;3885;51.474;-2.576;2023-07-13T07:54:15;17.40;99.90
7686;DHT22;3885;51.474;-2.576;2023-07-13T07:56:42;17.30;99.90
7686;DHT22;3885;51.474;-2.576;2023-07-13T07:59:10;17.40;99.90
7686;DHT22;3885;51.474;-2.576;2023-07-13T08:01:37;17.40;99.90
7686;DHT22;3885;51.474;-2.576;2023-07-13T08:04:04;17.30;99.90
7686;DHT22;3885;51.474;-2.576;2023-07-13T08:06:32;17.30;99.90
7686;DHT22;3885;51.474;-2.576;2023-07-13T08:08:59;17.20;99.90
7686;DHT22;3885;51.474;-2.576;2023-07-13T08:11:27;17.10;99.90
7686;DHT22;3885;51.474;-2.576;2023-07-13T08:13:54;16.90;99.90
7686;DHT22;3885;51.474;-2.576;2023-07-13T08:16:22;17.00;99.90
7686;DHT22;3885;51.474;-2.576;2023-07-13T08:23:45;17.20;99.90
7686;DHT22;3885;51.474;-2.576;2023-07-13T08:31:07;17.20;99.90
7686;DHT22;3885;51.474;-2.576;2023-07-13T08:33:36;17.30;99.90
7686;DHT22;3885;51.474;-2.576;2023-07-13T08:36:04;17.30;99.90
7686;DHT22;3885;51.474;-2.576;2023-07-13T08:40:58;17.50;99.90
7686;DHT22;3885;51.474;-2.576;2023-07-13T08:43:27;17.60;99.90
7686;DHT22;3885;51.474;-2.576;2023-07-13T08:46:01;17.80;99.90
7686;DHT22;3885;51.474;-2.576;2023-07-13T08:48:31;18.10;99.90
7686;DHT22;3885;51.474;-2.576;2023-07-13T08:51:04;18.00;99.90
7686;DHT22;3885;51.474;-2.576;2023-07-13T08:53:37;18.20;99.90
7686;DHT22;3885;51.474;-2.576;2023-07-13T08:56:11;18.10;99.90
7686;DHT22;3885;51.474;-2.576;2023-07-13T08:58:40;18.20;99.90
7686;DHT22;3885;51.474;-2.576;2023-07-13T09:01:17;18.30;99.90
7686;DHT22;3885;51.474;-2.576;2023-07-13T09:03:52;18.30;99.90
7686;DHT22;3885;51.474;-2.576;2023-07-13T09:06:23;18.30;99.90
7686;DHT22;3885;51.474;-2.576;2023-07-13T09:09:00;18.30;99.90
7686;DHT22;3885;51.474;-2.576;2023-07-13T09:11:40;18.40;99.90
7686;DHT22;3885;51.474;-2.576;2023-07-13T09:17:04;18.50;99.90
7686;DHT22;3885;51.474;-2.576;2023-07-13T09:19:33;18.60;99.90
7686;DHT22;3885;51.474;-2.576;2023-07-13T09:24:38;18.80;99.90
7686;DHT22;3885;51.474;-2.576;2023-07-13T09:27:17;18.80;99.90
7686;DHT22;3885;51.474;-2.576;2023-07-13T09:29:48;18.80;99.90
7686;DHT22;3885;51.474;-2.576;2023-07-13T09:34:50;18.70;99.90
7686;DHT22;3885;51.474;-2.576;2023-07-13T09:39:49;18.10;99.90
7686;DHT22;3885;51.474;-2.576;2023-07-13T09:42:19;18.00;99.90
7686;DHT22;3885;51.474;-2.576;2023-07-13T09:44:53;18.20;99.90
7686;DHT22;3885;51.474;-2.576;2023-07-13T09:47:22;18.10;99.90
7686;DHT22;3885;51.474;-2.576;2023-07-13T09:49:55;18.10;99.90
7686;DHT22;3885;51.474;-2.576;2023-07-13T09:52:23;18.20;99.90
7686;DHT22;3885;51.474;-2.576;2023-07-13T09:54:51;18.20;99.90
7686;DHT22;3885;51.474;-2.576;2023-07-13T09:57:23;18.20;99.90
7686;DHT22;3885;51.474;-2.576;2023-07-13T09:59:52;18.20;99.90
7686;DHT22;3885;51.474;-2.576;2023-07-13T10:02:24;18.30;99.90
7686;DHT22;3885;51.474;-2.576;2023-07-13T10:04:56;18.30;99.90
7686;DHT22;3885;51.474;-2.576;2023-07-13T10:07:25;18.60;99.90
7686;DHT22;3885;51.474;-2.576;2023-07-13T10:09:52;18.70;99.90
7686;DHT22;3885;51.474;-2.576;2023-07-13T10:12:20;18.90;99.90
7686;DHT22;3885;51.474;-2.576;2023-07-13T10:14:51;19.00;99.90
7686;DHT22;3885;51.474;-2.576;2023-07-13T10:17:26;19.20;99.90
7686;DHT22;3885;51.474;-2.576;2023-07-13T10:19:58;19.40;99.90
7686;DHT22;3885;51.474;-2.576;2023-07-13T10:22:31;19.60;99.90
7686;DHT22;3885;51.474;-2.576;2023-07-13T10:24:59;19.50;99.90
7686;DHT22;3885;51.474;-2.576;2023-07-13T10:27:31;19.70;99.90
7686;DHT22;3885;51.474;-2.576;2023-07-13T10:30:04;19.80;99.90
7686;DHT22;3885;51.474;-2.576;2023-07-13T10:32:36;19.60;99.90
7686;DHT22;3885;51.474;-2.576;2023-07-13T10:35:03;19.70;99.90
7686;DHT22;3885;51.474;-2.576;2023-07-13T10:37:41;19.50;99.90
7686;DHT22;3885;51.474;-2.576;2023-07-13T10:40:15;19.50;99.90
7686;DHT22;3885;51.474;-2.576;2023-07-13T10:42:46;19.60;99.90
7686;DHT22;3885;51.474;-2.576;2023-07-13T10:45:15;20.00;99.90
7686;DHT22;3885;51.474;-2.576;2023-07-13T10:47:43;20.00;99.90
7686;DHT22;3885;51.474;-2.576;2023-07-13T10:50:17;19.90;99.90
7686;DHT22;3885;51.474;-2.576;2023-07-13T10:52:48;19.80;99.90
7686;DHT22;3885;51.474;-2.576;2023-07-13T10:55:40;20.00;99.90
7686;DHT22;3885;51.474;-2.576;2023-07-13T10:58:13;20.30;99.90
7686;DHT22;3885;51.474;-2.576;2023-07-13T11:00:48;20.40;99.90
7686;DHT22;3885;51.474;-2.576;2023-07-13T11:03:19;20.30;99.90
7686;DHT22;3885;51.474;-2.576;2023-07-13T11:05:49;20.10;99.90
7686;DHT22;3885;51.474;-2.576;2023-07-13T11:08:32;20.10;99.90
7686;DHT22;3885;51.474;-2.576;2023-07-13T11:13:55;20.10;99.90
7686;DHT22;3885;51.474;-2.576;2023-07-13T11:19:37;20.30;99.90
7686;DHT22;3885;51.474;-2.576;2023-07-13T11:22:14;20.50;99.90
7686;DHT22;3885;51.474;-2.576;2023-07-13T11:24:58;20.50;99.90
7686;DHT22;3885;51.474;-2.576;2023-07-13T11:27:38;20.70;99.90
7686;DHT22;3885;51.474;-2.576;2023-07-13T11:30:21;20.80;99.90
7686;DHT22;3885;51.474;-2.576;2023-07-13T11:33:04;20.90;99.90
7686;DHT22;3885;51.474;-2.576;2023-07-13T11:38:12;20.70;99.90
7686;DHT22;3885;51.474;-2.576;2023-07-13T11:40:44;20.80;99.90
7686;DHT22;3885;51.474;-2.576;2023-07-13T11:43:14;20.70;99.90
7686;DHT22;3885;51.474;-2.576;2023-07-13T11:48:19;20.70;99.90
7686;DHT22;3885;51.474;-2.576;2023-07-13T11:50:54;20.60;99.90
7686;DHT22;3885;51.474;-2.576;2023-07-13T11:53:24;20.60;99.90
7686;DHT22;3885;51.474;-2.576;2023-07-13T11:55:54;20.70;99.90
7686;DHT22;3885;51.474;-2.576;2023-07-13T11:58:24;20.90;99.90
7686;DHT22;3885;51.474;-2.576;2023-07-13T12:00:52;20.80;99.90
7686;DHT22;3885;51.474;-2.576;2023-07-13T12:03:21;20.50;99.90
7686;DHT22;3885;51.474;-2.576;2023-07-13T12:05:57;20.50;99.90
7686;DHT22;3885;51.474;-2.576;2023-07-13T12:08:25;20.30;99.90
7686;DHT22;3885;51.474;-2.576;2023-07-13T12:11:03;20.30;99.90
7686;DHT22;3885;51.474;-2.576;2023-07-13T12:16:12;20.40;99.90
7686;DHT22;3885;51.474;-2.576;2023-07-13T12:18:42;20.60;99.90
7686;DHT22;3885;51.474;-2.576;2023-07-13T12:21:14;20.80;99.90
7686;DHT22;3885;51.474;-2.576;2023-07-13T12:26:12;21.30;99.90
7686;DHT22;3885;51.474;-2.576;2023-07-13T12:28:45;21.40;99.90
7686;DHT22;3885;51.474;-2.576;2023-07-13T12:31:26;21.60;99.90
7686;DHT22;3885;51.474;-2.576;2023-07-13T12:33:58;21.60;99.90
7686;DHT22;3885;51.474;-2.576;2023-07-13T12:36:25;21.70;99.90
7686;DHT22;3885;51.474;-2.576;2023-07-13T12:38:54;21.60;99.90
7686;DHT22;3885;51.474;-2.576;2023-07-13T12:41:23;21.30;99.90
7686;DHT22;3885;51.474;-2.576;2023-07-13T12:43:50;21.40;99.90
7686;DHT22;3885;51.474;-2.576;2023-07-13T12:46:20;21.20;99.90
7686;DHT22;3885;51.474;-2.576;2023-07-13T12:48:49;21.40;99.90
7686;DHT22;3885;51.474;-2.576;2023-07-13T12:51:17;21.60;99.90
7686;DHT22;3885;51.474;-2.576;2023-07-13T12:53:49;21.40;99.90
7686;DHT22;3885;51.474;-2.576;2023-07-13T12:56:21;21.20;99.90
7686;DHT22;3885;51.474;-2.576;2023-07-13T12:58:56;21.10;99.90
7686;DHT22;3885;51.474;-2.576;2023-07-13T13:01:27;21.10;99.90
7686;DHT22;3885;51.474;-2.576;2023-07-13T13:03:55;20.90;99.90
7686;DHT22;3885;51.474;-2.576;2023-07-13T13:06:24;20.80;99.90
7686;DHT22;3885;51.474;-2.576;2023-07-13T13:11:21;20.80;99.90
7686;DHT22;3885;51.474;-2.576;2023-07-13T13:13:50;20.80;99.90
7686;DHT22;3885;51.474;-2.576;2023-07-13T13:16:20;20.80;99.90
7686;DHT22;3885;51.474;-2.576;2023-07-13T13:23:43;20.60;99.90
7686;DHT22;3885;51.474;-2.576;2023-07-13T13:26:13;20.60;99.90
7686;DHT22;3885;51.474;-2.576;2023-07-13T13:28:41;20.50;99.90
7686;DHT22;3885;51.474;-2.576;2023-07-13T13:31:11;20.50;99.90
7686;DHT22;3885;51.474;-2.576;2023-07-13T13:33:39;20.60;99.90
7686;DHT22;3885;51.474;-2.576;2023-07-13T13:36:14;20.80;99.90
7686;DHT22;3885;51.474;-2.576;2023-07-13T13:38:42;20.80;99.90
7686;DHT22;3885;51.474;-2.576;2023-07-13T13:41:10;20.70;99.90
7686;DHT22;3885;51.474;-2.576;2023-07-13T13:43:39;20.80;99.90
7686;DHT22;3885;51.474;-2.576;2023-07-13T13:46:14;20.70;99.90
7686;DHT22;3885;51.474;-2.576;2023-07-13T13:48:42;20.70;99.90
7686;DHT22;3885;51.474;-2.576;2023-07-13T13:51:15;20.80;99.90
7686;DHT22;3885;51.474;-2.576;2023-07-13T13:53:43;21.00;99.90
7686;DHT22;3885;51.474;-2.576;2023-07-13T13:56:11;21.00;99.90
7686;DHT22;3885;51.474;-2.576;2023-07-13T13:58:38;21.00;99.90
7686;DHT22;3885;51.474;-2.576;2023-07-13T14:01:10;21.10;99.90
7686;DHT22;3885;51.474;-2.576;2023-07-13T14:03:39;21.30;99.90
7686;DHT22;3885;51.474;-2.576;2023-07-13T14:11:03;21.50;99.90
7686;DHT22;3885;51.474;-2.576;2023-07-13T14:13:33;21.70;99.90
7686;DHT22;3885;51.474;-2.576;2023-07-13T14:16:02;21.80;99.90
7686;DHT22;3885;51.474;-2.576;2023-07-13T14:18:30;21.80;99.90
7686;DHT22;3885;51.474;-2.576;2023-07-13T14:20:57;21.90;99.90
7686;DHT22;3885;51.474;-2.576;2023-07-13T14:23:24;21.70;99.90
7686;DHT22;3885;51.474;-2.576;2023-07-13T14:25:51;21.70;99.90
7686;DHT22;3885;51.474;-2.576;2023-07-13T14:28:22;21.70;99.90
7686;DHT22;3885;51.474;-2.576;2023-07-13T14:30:49;21.80;99.90
7686;DHT22;3885;51.474;-2.576;2023-07-13T14:33:17;21.80;99.90
7686;DHT22;3885;51.474;-2.576;2023-07-13T14:35:45;21.80;99.90
7686;DHT22;3885;51.474;-2.576;2023-07-13T14:38:17;21.80;99.90
7686;DHT22;3885;51.474;-2.576;2023-07-13T14:43:12;21.70;99.90
7686;DHT22;3885;51.474;-2.576;2023-07-13T14:45:42;21.50;99.90
7686;DHT22;3885;51.474;-2.576;2023-07-13T14:48:14;21.40;99.90
7686;DHT22;3885;51.474;-2.576;2023-07-13T14:50:42;21.50;99.90
7686;DHT22;3885;51.474;-2.576;2023-07-13T14:53:11;21.40;99.90
7686;DHT22;3885;51.474;-2.576;2023-07-13T14:55:39;21.50;99.90
7686;DHT22;3885;51.474;-2.576;2023-07-13T15:00:36;21.80;99.90
7686;DHT22;3885;51.474;-2.576;2023-07-13T15:03:04;21.70;99.90
7686;DHT22;3885;51.474;-2.576;2023-07-13T15:05:32;21.70;99.90
7686;DHT22;3885;51.474;-2.576;2023-07-13T15:08:01;21.60;99.90
7686;DHT22;3885;51.474;-2.576;2023-07-13T15:10:31;21.60;99.90
7686;DHT22;3885;51.474;-2.576;2023-07-13T15:13:00;21.70;99.90
7686;DHT22;3885;51.474;-2.576;2023-07-13T15:15:29;21.60;99.90
7686;DHT22;3885;51.474;-2.576;2023-07-13T15:17:57;21.70;99.90
7686;DHT22;3885;51.474;-2.576;2023-07-13T15:20:28;21.80;99.90
7686;DHT22;3885;51.474;-2.576;2023-07-13T15:25:26;21.50;99.90
7686;DHT22;3885;51.474;-2.576;2023-07-13T15:27:55;21.10;99.90
7686;DHT22;3885;51.474;-2.576;2023-07-13T15:30:24;20.90;99.90
7686;DHT22;3885;51.474;-2.576;2023-07-13T15:32:52;20.80;99.90
7686;DHT22;3885;51.474;-2.576;2023-07-13T15:35:20;21.00;99.90
7686;DHT22;3885;51.474;-2.576;2023-07-13T15:37:49;20.90;99.90
7686;DHT22;3885;51.474;-2.576;2023-07-13T15:40:17;20.90;99.90
7686;DHT22;3885;51.474;-2.576;2023-07-13T15:42:47;20.90;99.90
7686;DHT22;3885;51.474;-2.576;2023-07-13T15:45:18;21.10;99.90
7686;DHT22;3885;51.474;-2.576;2023-07-13T15:47:45;21.10;99.90
7686;DHT22;3885;51.474;-2.576;2023-07-13T15:50:14;21.10;99.90
7686;DHT22;3885;51.474;-2.576;2023-07-13T15:55:12;21.10;99.90
7686;DHT22;3885;51.474;-2.576;2023-07-13T15:57:41;21.10;99.90
7686;DHT22;3885;51.474;-2.576;2023-07-13T16:00:22;20.90;99.90
7686;DHT22;3885;51.474;-2.576;2023-07-13T16:02:50;21.00;99.90
7686;DHT22;3885;51.474;-2.576;2023-07-13T16:05:18;21.00;99.90
7686;DHT22;3885;51.474;-2.576;2023-07-13T16:10:15;21.00;99.90
7686;DHT22;3885;51.474;-2.576;2023-07-13T16:12:42;20.90;99.90
7686;DHT22;3885;51.474;-2.576;2023-07-13T16:15:13;20.80;99.90
7686;DHT22;3885;51.474;-2.576;2023-07-13T16:17:43;20.90;99.90
7686;DHT22;3885;51.474;-2.576;2023-07-13T16:20:10;20.80;99.90
7686;DHT22;3885;51.474;-2.576;2023-07-13T16:22:39;20.80;99.90
7686;DHT22;3885;51.474;-2.576;2023-07-13T16:25:14;20.80;99.90
7686;DHT22;3885;51.474;-2.576;2023-07-13T16:27:41;20.70;99.90
7686;DHT22;3885;51.474;-2.576;2023-07-13T16:30:17;20.70;99.90
7686;DHT22;3885;51.474;-2.576;2023-07-13T16:32:48;20.60;99.90
7686;DHT22;3885;51.474;-2.576;2023-07-13T16:35:17;20.50;99.90
7686;DHT22;3885;51.474;-2.576;2023-07-13T16:37:44;20.50;99.90
7686;DHT22;3885;51.474;-2.576;2023-07-13T16:40:22;20.50;99.90
7686;DHT22;3885;51.474;-2.576;2023-07-13T16:42:51;20.40;99.90
7686;DHT22;3885;51.474;-2.576;2023-07-13T16:45:19;20.30;99.90
7686;DHT22;3885;51.474;-2.576;2023-07-13T16:47:51;20.30;99.90
7686;DHT22;3885;51.474;-2.576;2023-07-13T16:50:21;20.40;99.90
7686;DHT22;3885;51.474;-2.576;2023-07-13T16:52:49;20.20;99.90
7686;DHT22;3885;51.474;-2.576;2023-07-13T16:55:17;20.30;99.90
7686;DHT22;3885;51.474;-2.576;2023-07-13T16:57:48;20.40;99.90
7686;DHT22;3885;51.474;-2.576;2023-07-13T17:00:20;20.40;99.90
7686;DHT22;3885;51.474;-2.576;2023-07-13T17:02:55;20.30;99.90
7686;DHT22;3885;51.474;-2.576;2023-07-13T17:05:28;20.40;99.90
7686;DHT22;3885;51.474;-2.576;2023-07-13T17:07:55;20.40;99.90
7686;DHT22;3885;51.474;-2.576;2023-07-13T17:10:22;20.30;99.90
7686;DHT22;3885;51.474;-2.576;2023-07-13T17:12:50;20.40;99.90
7686;DHT22;3885;51.474;-2.576;2023-07-13T17:15:17;20.30;99.90
7686;DHT22;3885;51.474;-2.576;2023-07-13T17:17:46;20.30;99.90
7686;DHT22;3885;51.474;-2.576;2023-07-13T17:20:18;20.30;99.90
7686;DHT22;3885;51.474;-2.576;2023-07-13T17:22:47;20.20;99.90
7686;DHT22;3885;51.474;-2.576;2023-07-13T17:25:16;20.30;99.90
7686;DHT22;3885;51.474;-2.576;2023-07-13T17:27:44;20.30;99.90
7686;DHT22;3885;51.474;-2.576;2023-07-13T17:30:14;20.20;99.90
7686;DHT22;3885;51.474;-2.576;2023-07-13T17:35:19;20.10;99.90
7686;DHT22;3885;51.474;-2.576;2023-07-13T17:37:48;20.00;99.90
7686;DHT22;3885;51.474;-2.576;2023-07-13T17:42:44;20.00;99.90
7686;DHT22;3885;51.474;-2.576;2023-07-13T17:45:12;20.00;99.90
7686;DHT22;3885;51.474;-2.576;2023-07-13T17:47:45;20.00;99.90
7686;DHT22;3885;51.474;-2.576;2023-07-13T17:50:16;20.00;99.90
7686;DHT22;3885;51.474;-2.576;2023-07-13T17:55:17;20.00;99.90
7686;DHT22;3885;51.474;-2.576;2023-07-13T17:57:45;20.00;99.90
7686;DHT22;3885;51.474;-2.576;2023-07-13T18:00:16;20.00;99.90
7686;DHT22;3885;51.474;-2.576;2023-07-13T18:03:00;20.00;99.90
7686;DHT22;3885;51.474;-2.576;2023-07-13T18:05:29;20.00;99.90
7686;DHT22;3885;51.474;-2.576;2023-07-13T18:07:57;20.00;99.90
7686;DHT22;3885;51.474;-2.576;2023-07-13T18:10:24;19.90;99.90
7686;DHT22;3885;51.474;-2.576;2023-07-13T18:12:51;19.90;99.90
7686;DHT22;3885;51.474;-2.576;2023-07-13T18:15:20;19.90;99.90
7686;DHT22;3885;51.474;-2.576;2023-07-13T18:17:49;19.90;99.90
7686;DHT22;3885;51.474;-2.576;2023-07-13T18:20:18;19.90;99.90
7686;DHT22;3885;51.474;-2.576;2023-07-13T18:22:47;20.00;99.90